Time;durP1;ratioP1;P1;durP2;ratioP2;P2;SDS_P1;SDS_P2;PMS_P1;PMS_P2;Temp;Humidity;BMP_temperature;BMP_pressure;BME280_temperature;BME280_humidity;BME280_pressure;Samples;Min_cycle;Max_cycle;Signal;HPM_P1;HPM_P2
2022/10/26 00:00:48;;;;;;;10.25;8.38;;;;;;;;;;5026938;28;20412;-75
2022/10/26 00:03:15;;;;;;;15.05;8.95;;;;;;;;;;5026649;28;20073;-75
2022/10/26 00:05:41;;;;;;;11.48;9.07;;;;;;;;;;5029074;28;20034;-75
2022/10/26 00:08:08;;;;;;;11.80;8.65;;;;;;;;;;5018743;28;20046;-74
2022/10/26 00:10:34;;;;;;;12.15;9.05;;;;;;;;;;5023664;28;20037;-75
2022/10/26 00:13:01;;;;;;;10.73;8.57;;;;;;;;;;5021894;28;20124;-75
2022/10/26 00:15:30;;;;;;;12.95;9.50;;;;;;;;;;5012298;28;20045;-75
2022/10/26 00:17:56;;;;;;;11.57;8.55;;;;;;;;;;5023234;28;20400;-75
2022/10/26 00:20:22;;;;;;;11.63;8.88;;;;;;;;;;5019416;28;20041;-75
2022/10/26 00:22:48;;;;;;;14.75;9.38;;;;;;;;;;5023890;28;20041;-75
2022/10/26 00:25:17;;;;;;;12.38;9.13;;;;;;;;;;5027674;28;20041;-75
2022/10/26 00:27:43;;;;;;;11.15;9.18;;;;;;;;;;5020786;28;20053;-75
2022/10/26 00:30:09;;;;;;;12.82;8.77;;;;;;;;;;5025430;28;20091;-75
2022/10/26 00:32:35;;;;;;;10.43;8.23;;;;;;;;;;5023474;28;20057;-75
2022/10/26 00:35:01;;;;;;;14.55;8.10;;;;;;;;;;5028789;28;20099;-75
2022/10/26 00:37:27;;;;;;;13.63;9.63;;;;;;;;;;5031629;28;20049;-75
2022/10/26 00:39:53;;;;;;;11.20;8.50;;;;;;;;;;5026694;28;20374;-75
2022/10/26 00:42:23;;;;;;;11.45;8.20;;;;;;;;;;5030280;28;20053;-74
2022/10/26 00:44:49;;;;;;;12.60;8.27;;;;;;;;;;5029258;28;20041;-75
2022/10/26 00:47:24;;;;;;;10.43;8.40;;;;;;;;;;5030700;28;20107;-75
2022/10/26 00:49:52;;;;;;;12.02;8.13;;;;;;;;;;5023248;28;20079;-75
2022/10/26 00:52:19;;;;;;;11.73;8.50;;;;;;;;;;5024661;28;20396;-74
2022/10/26 00:54:45;;;;;;;10.85;7.90;;;;;;;;;;5024900;28;20038;-75
2022/10/26 00:57:11;;;;;;;12.45;8.63;;;;;;;;;;5025209;28;20458;-75
2022/10/26 00:59:38;;;;;;;11.25;8.35;;;;;;;;;;5032468;28;20033;-75
2022/10/26 01:02:04;;;;;;;9.52;8.43;;;;;;;;;;5029079;28;20485;-75
2022/10/26 01:04:30;;;;;;;11.88;8.20;;;;;;;;;;5031064;28;20100;-74
2022/10/26 01:07:00;;;;;;;11.52;8.80;;;;;;;;;;5030899;28;20102;-74
2022/10/26 01:09:26;;;;;;;11.00;7.72;;;;;;;;;;5020870;28;20054;-74
2022/10/26 01:11:52;;;;;;;9.15;8.25;;;;;;;;;;5031237;28;20179;-75
2022/10/26 01:14:19;;;;;;;12.10;8.68;;;;;;;;;;5029414;28;20052;-74
2022/10/26 01:17:04;;;;;;;10.65;8.65;;;;;;;;;;5021149;28;20046;-75
2022/10/26 01:19:39;;;;;;;11.68;8.93;;;;;;;;;;5030666;28;20049;-75
2022/10/26 01:22:05;;;;;;;12.30;8.82;;;;;;;;;;5029916;28;20528;-74
2022/10/26 01:24:31;;;;;;;13.02;8.35;;;;;;;;;;5027908;28;20069;-74
2022/10/26 01:27:06;;;;;;;12.40;8.65;;;;;;;;;;5026141;28;20041;-74
2022/10/26 01:29:50;;;;;;;11.70;8.15;;;;;;;;;;5027815;28;20432;-75
2022/10/26 01:32:21;;;;;;;10.13;7.97;;;;;;;;;;5027401;28;20769;-74
2022/10/26 01:34:52;;;;;;;9.75;8.65;;;;;;;;;;5031524;28;20080;-75
2022/10/26 01:37:22;;;;;;;12.55;8.45;;;;;;;;;;5019020;28;20053;-75
2022/10/26 01:40:09;;;;;;;11.82;8.85;;;;;;;;;;5030442;28;20050;-75
2022/10/26 01:42:36;;;;;;;10.70;8.05;;;;;;;;;;5027595;28;20052;-75
2022/10/26 01:45:07;;;;;;;11.88;8.32;;;;;;;;;;5023926;28;20038;-75
2022/10/26 01:47:33;;;;;;;10.68;8.23;;;;;;;;;;5027423;28;20037;-75
2022/10/26 01:50:01;;;;;;;11.88;8.65;;;;;;;;;;5028946;28;20045;-75
2022/10/26 01:52:27;;;;;;;12.25;8.20;;;;;;;;;;5030281;28;20147;-75
2022/10/26 01:55:03;;;;;;;10.77;8.10;;;;;;;;;;5022351;28;20053;-75
2022/10/26 01:57:32;;;;;;;12.18;8.07;;;;;;;;;;5026999;28;20049;-75
2022/10/26 02:00:11;;;;;;;11.40;8.27;;;;;;;;;;5029199;28;20084;-75
2022/10/26 02:02:49;;;;;;;12.02;8.45;;;;;;;;;;5027126;28;20077;-75
2022/10/26 02:05:33;;;;;;;11.65;8.27;;;;;;;;;;5028151;28;20049;-75
2022/10/26 02:08:19;;;;;;;10.75;8.25;;;;;;;;;;5026936;28;20046;-75
2022/10/26 02:10:48;;;;;;;11.05;8.50;;;;;;;;;;5029069;28;20497;-75
2022/10/26 02:13:20;;;;;;;11.80;8.45;;;;;;;;;;5021395;28;20046;-74
2022/10/26 02:15:49;;;;;;;10.05;8.35;;;;;;;;;;5023819;28;20041;-75
2022/10/26 02:18:18;;;;;;;11.93;8.80;;;;;;;;;;5028962;28;20124;-74
2022/10/26 02:20:47;;;;;;;9.45;8.48;;;;;;;;;;5024072;28;20049;-74
2022/10/26 02:23:14;;;;;;;12.43;8.98;;;;;;;;;;5026438;28;20038;-74
2022/10/26 02:25:43;;;;;;;12.63;8.95;;;;;;;;;;5024229;28;20065;-74
2022/10/26 02:28:11;;;;;;;13.13;8.80;;;;;;;;;;5028696;28;20130;-75
2022/10/26 02:30:38;;;;;;;13.98;9.75;;;;;;;;;;5026142;28;20501;-75
2022/10/26 02:33:05;;;;;;;12.23;10.30;;;;;;;;;;5021013;28;20045;-75
2022/10/26 02:35:33;;;;;;;10.30;9.20;;;;;;;;;;5030253;28;20048;-75
2022/10/26 02:38:01;;;;;;;13.45;10.18;;;;;;;;;;5030537;28;20544;-75
2022/10/26 02:40:28;;;;;;;12.60;10.13;;;;;;;;;;5028069;28;20045;-74
2022/10/26 02:42:56;;;;;;;13.10;10.00;;;;;;;;;;5010605;28;20051;-75
2022/10/26 02:45:25;;;;;;;13.02;10.30;;;;;;;;;;5029098;28;20564;-74
2022/10/26 02:47:51;;;;;;;11.55;9.90;;;;;;;;;;5023450;28;20059;-75
2022/10/26 02:50:19;;;;;;;13.55;10.15;;;;;;;;;;5019795;28;20046;-75
2022/10/26 02:52:52;;;;;;;12.38;10.73;;;;;;;;;;5030040;28;20103;-74
2022/10/26 02:55:22;;;;;;;15.07;10.48;;;;;;;;;;5028189;28;20044;-74
2022/10/26 02:57:51;;;;;;;13.23;10.10;;;;;;;;;;5029676;28;20071;-74
2022/10/26 03:00:17;;;;;;;13.52;9.95;;;;;;;;;;5025190;28;20060;-74
2022/10/26 03:02:45;;;;;;;11.88;10.38;;;;;;;;;;5030316;28;20091;-75
2022/10/26 03:05:14;;;;;;;11.63;10.05;;;;;;;;;;5028263;28;20478;-75
2022/10/26 03:07:40;;;;;;;14.18;10.57;;;;;;;;;;5019730;28;20069;-74
2022/10/26 03:10:06;;;;;;;14.82;10.50;;;;;;;;;;5023092;28;20099;-75
2022/10/26 03:12:32;;;;;;;15.07;10.55;;;;;;;;;;5029566;28;20120;-75
2022/10/26 03:14:58;;;;;;;13.38;9.98;;;;;;;;;;5025289;28;20041;-74
2022/10/26 03:17:24;;;;;;;11.65;9.85;;;;;;;;;;5025531;28;20048;-75
2022/10/26 03:19:50;;;;;;;14.23;10.70;;;;;;;;;;5030173;28;20045;-75
2022/10/26 03:22:19;;;;;;;14.05;10.40;;;;;;;;;;5027756;28;20429;-75
2022/10/26 03:24:45;;;;;;;13.48;10.25;;;;;;;;;;5028408;28;20052;-75
2022/10/26 03:27:11;;;;;;;15.32;10.40;;;;;;;;;;5028405;28;20045;-75
2022/10/26 03:29:37;;;;;;;13.18;10.80;;;;;;;;;;5027688;28;20204;-75
2022/10/26 03:32:03;;;;;;;15.43;11.02;;;;;;;;;;5029075;28;20152;-75
2022/10/26 03:34:29;;;;;;;14.90;10.07;;;;;;;;;;5029132;28;20554;-75
2022/10/26 03:36:55;;;;;;;16.77;10.43;;;;;;;;;;5029470;28;20057;-75
2022/10/26 03:39:55;;;;;;;13.15;11.52;;;;;;;;;;5019501;28;20161;-75
2022/10/26 03:42:21;;;;;;;15.10;11.20;;;;;;;;;;5010843;28;20089;-75
2022/10/26 03:44:47;;;;;;;14.32;11.60;;;;;;;;;;5026050;28;20081;-75
2022/10/26 03:47:13;;;;;;;14.43;10.90;;;;;;;;;;5020107;28;20065;-75
2022/10/26 03:49:39;;;;;;;13.05;10.90;;;;;;;;;;5022425;28;20033;-75
2022/10/26 03:52:05;;;;;;;14.57;11.27;;;;;;;;;;5027842;28;20057;-74
2022/10/26 03:54:31;;;;;;;14.85;11.80;;;;;;;;;;5024980;28;20456;-75
2022/10/26 03:56:57;;;;;;;16.05;11.63;;;;;;;;;;5024326;28;20045;-75
2022/10/26 03:59:23;;;;;;;14.27;11.80;;;;;;;;;;5024792;28;20046;-76
2022/10/26 04:01:49;;;;;;;14.48;11.55;;;;;;;;;;5020849;28;20082;-75
2022/10/26 04:04:15;;;;;;;17.60;12.07;;;;;;;;;;5021799;28;20084;-75
2022/10/26 04:06:41;;;;;;;14.73;12.63;;;;;;;;;;5026185;28;20133;-75
2022/10/26 04:09:08;;;;;;;14.00;11.85;;;;;;;;;;5029226;28;20076;-75
2022/10/26 04:11:37;;;;;;;15.90;12.05;;;;;;;;;;5028080;28;20057;-75
2022/10/26 04:14:03;;;;;;;15.90;12.52;;;;;;;;;;5031919;28;20051;-75
2022/10/26 04:16:31;;;;;;;18.63;12.35;;;;;;;;;;5028495;28;20042;-75
2022/10/26 04:18:57;;;;;;;14.85;12.63;;;;;;;;;;5029217;28;20099;-75
2022/10/26 04:21:23;;;;;;;16.55;12.95;;;;;;;;;;5030001;28;20397;-74
2022/10/26 04:23:49;;;;;;;16.52;13.02;;;;;;;;;;5026701;28;20050;-75
2022/10/26 04:26:15;;;;;;;16.90;12.23;;;;;;;;;;5030124;28;20050;-75
2022/10/26 04:28:41;;;;;;;16.45;13.25;;;;;;;;;;5030202;28;20891;-75
2022/10/26 04:31:07;;;;;;;18.13;13.27;;;;;;;;;;5024902;28;20095;-75
2022/10/26 04:33:33;;;;;;;17.70;13.98;;;;;;;;;;5027382;28;20401;-75
2022/10/26 04:36:00;;;;;;;15.95;12.38;;;;;;;;;;5031302;28;20056;-75
2022/10/26 04:38:26;;;;;;;16.15;12.45;;;;;;;;;;5029175;28;20045;-75
2022/10/26 04:40:52;;;;;;;14.32;12.80;;;;;;;;;;5032063;28;20116;-75
2022/10/26 04:43:18;;;;;;;15.60;12.85;;;;;;;;;;5029930;28;20152;-75
2022/10/26 04:45:44;;;;;;;14.13;12.63;;;;;;;;;;5031296;28;20128;-75
2022/10/26 04:48:11;;;;;;;15.27;12.93;;;;;;;;;;5029339;28;20041;-75
2022/10/26 04:50:38;;;;;;;16.27;13.65;;;;;;;;;;5016989;28;20042;-75
2022/10/26 04:53:07;;;;;;;18.17;13.15;;;;;;;;;;5030851;28;20045;-75
2022/10/26 04:55:34;;;;;;;16.77;12.40;;;;;;;;;;5030465;28;20045;-75
2022/10/26 04:58:00;;;;;;;17.27;12.70;;;;;;;;;;5018795;28;20041;-75
2022/10/26 05:00:29;;;;;;;16.15;12.73;;;;;;;;;;5028357;28;20057;-75
2022/10/26 05:03:02;;;;;;;13.98;11.90;;;;;;;;;;5033694;28;20451;-75
2022/10/26 05:05:28;;;;;;;14.65;11.93;;;;;;;;;;5029011;28;20053;-75
2022/10/26 05:07:55;;;;;;;15.10;12.40;;;;;;;;;;5028652;28;20053;-74
2022/10/26 05:10:21;;;;;;;15.93;12.68;;;;;;;;;;5027546;28;20120;-75
2022/10/26 05:12:54;;;;;;;15.45;11.80;;;;;;;;;;5028356;28;20044;-75
2022/10/26 05:15:20;;;;;;;15.85;11.73;;;;;;;;;;5030327;28;20098;-75
2022/10/26 05:17:47;;;;;;;15.25;12.88;;;;;;;;;;5030990;28;20048;-75
2022/10/26 05:20:13;;;;;;;17.08;12.57;;;;;;;;;;5024946;28;20041;-75
2022/10/26 05:22:39;;;;;;;13.25;11.85;;;;;;;;;;5028319;28;20134;-75
2022/10/26 05:25:06;;;;;;;14.88;12.32;;;;;;;;;;5029526;28;20516;-75
2022/10/26 05:27:32;;;;;;;16.50;11.75;;;;;;;;;;5027718;28;20045;-75
2022/10/26 05:29:58;;;;;;;15.52;12.60;;;;;;;;;;5021725;28;20045;-75
2022/10/26 05:32:24;;;;;;;14.30;12.15;;;;;;;;;;5028771;28;20405;-75
2022/10/26 05:34:50;;;;;;;15.68;12.20;;;;;;;;;;5017085;28;20041;-75
2022/10/26 05:37:16;;;;;;;13.95;11.95;;;;;;;;;;5025132;28;20103;-75
2022/10/26 05:39:44;;;;;;;14.95;11.98;;;;;;;;;;5029183;28;20042;-75
2022/10/26 05:42:10;;;;;;;19.58;13.57;;;;;;;;;;5022141;28;20088;-75
2022/10/26 05:44:36;;;;;;;18.85;13.15;;;;;;;;;;5025426;28;20491;-75
2022/10/26 05:47:03;;;;;;;16.15;13.00;;;;;;;;;;5030842;28;20049;-74
2022/10/26 05:49:29;;;;;;;17.13;13.77;;;;;;;;;;5031027;28;20345;-75
2022/10/26 05:51:55;;;;;;;16.58;13.15;;;;;;;;;;5026157;28;20116;-74
2022/10/26 05:54:21;;;;;;;15.68;12.82;;;;;;;;;;5025284;28;20082;-75
2022/10/26 05:56:47;;;;;;;18.42;13.38;;;;;;;;;;5024378;28;20073;-74
2022/10/26 05:59:14;;;;;;;17.65;13.63;;;;;;;;;;5024129;28;20068;-75
2022/10/26 06:01:40;;;;;;;19.63;13.63;;;;;;;;;;5030357;28;20092;-74
2022/10/26 06:04:06;;;;;;;15.65;12.77;;;;;;;;;;5026636;28;20081;-75
2022/10/26 06:06:41;;;;;;;17.75;14.02;;;;;;;;;;5014830;28;20583;-74
2022/10/26 06:09:10;;;;;;;16.35;13.48;;;;;;;;;;5030709;28;20118;-74
2022/10/26 06:11:36;;;;;;;19.58;13.27;;;;;;;;;;5019182;28;20053;-75
2022/10/26 06:14:02;;;;;;;16.00;12.80;;;;;;;;;;5029166;28;20489;-75
2022/10/26 06:16:38;;;;;;;16.38;12.75;;;;;;;;;;5023408;28;20060;-75
2022/10/26 06:19:16;;;;;;;15.10;13.18;;;;;;;;;;5026000;28;20092;-74
2022/10/26 06:22:01;;;;;;;16.48;12.77;;;;;;;;;;5029528;28;20045;-74
2022/10/26 06:24:33;;;;;;;17.15;14.13;;;;;;;;;;5023989;28;20149;-75
2022/10/26 06:27:17;;;;;;;15.93;13.23;;;;;;;;;;5027282;28;20045;-74
2022/10/26 06:29:43;;;;;;;16.25;13.13;;;;;;;;;;5027537;28;20049;-74
2022/10/26 06:32:10;;;;;;;17.17;12.77;;;;;;;;;;5014825;28;20042;-74
2022/10/26 06:34:37;;;;;;;15.73;12.43;;;;;;;;;;5027583;28;20137;-75
2022/10/26 06:37:03;;;;;;;16.58;12.80;;;;;;;;;;5030854;28;20505;-74
2022/10/26 06:39:30;;;;;;;18.13;13.85;;;;;;;;;;5026359;28;20056;-75
2022/10/26 06:41:57;;;;;;;16.17;13.23;;;;;;;;;;5024677;28;20061;-74
2022/10/26 06:44:24;;;;;;;15.38;13.00;;;;;;;;;;5027816;28;20083;-74
2022/10/26 06:46:54;;;;;;;19.27;13.98;;;;;;;;;;5027629;28;20048;-74
2022/10/26 06:49:26;;;;;;;16.70;13.60;;;;;;;;;;5022025;28;20103;-75
2022/10/26 06:51:58;;;;;;;20.17;13.82;;;;;;;;;;5025952;28;20485;-75
2022/10/26 06:54:46;;;;;;;16.48;12.88;;;;;;;;;;5020275;28;20045;-75
2022/10/26 06:57:13;;;;;;;16.85;13.07;;;;;;;;;;5012195;28;20136;-74
2022/10/26 06:59:42;;;;;;;16.83;12.77;;;;;;;;;;5027461;28;20045;-74
2022/10/26 07:02:09;;;;;;;18.08;13.07;;;;;;;;;;5015928;28;20402;-74
2022/10/26 07:04:35;;;;;;;15.68;12.23;;;;;;;;;;5029987;28;20048;-74
2022/10/26 07:07:02;;;;;;;14.88;12.88;;;;;;;;;;5019832;28;20374;-74
2022/10/26 07:09:28;;;;;;;16.65;12.27;;;;;;;;;;5028440;28;20053;-74
2022/10/26 07:11:53;;;;;;;13.98;11.85;;;;;;;;;;5029537;28;20541;-74
2022/10/26 07:14:19;;;;;;;18.55;11.65;;;;;;;;;;5026479;28;20052;-74
2022/10/26 07:16:46;;;;;;;15.27;12.05;;;;;;;;;;5030154;28;20050;-74
2022/10/26 07:19:12;;;;;;;18.83;13.10;;;;;;;;;;5023505;28;20406;-74
2022/10/26 07:21:38;;;;;;;15.27;11.48;;;;;;;;;;5023274;28;20041;-74
2022/10/26 07:24:04;;;;;;;16.55;11.98;;;;;;;;;;5030085;28;20041;-74
2022/10/26 07:26:30;;;;;;;14.90;11.13;;;;;;;;;;5018243;28;20052;-74
2022/10/26 07:28:56;;;;;;;16.05;11.93;;;;;;;;;;5021541;28;20551;-74
2022/10/26 07:31:25;;;;;;;13.45;11.35;;;;;;;;;;5026352;28;20084;-74
2022/10/26 07:33:52;;;;;;;15.35;11.65;;;;;;;;;;5025626;28;20067;-74
2022/10/26 07:36:18;;;;;;;15.10;11.38;;;;;;;;;;5028995;28;20049;-74
2022/10/26 07:38:44;;;;;;;12.65;10.80;;;;;;;;;;5027660;28;20065;-74
2022/10/26 07:41:10;;;;;;;14.95;11.32;;;;;;;;;;5023505;28;20436;-75
2022/10/26 07:43:36;;;;;;;13.85;11.63;;;;;;;;;;5025001;28;20045;-74
2022/10/26 07:46:03;;;;;;;13.13;11.20;;;;;;;;;;5027756;28;20107;-74
2022/10/26 07:48:29;;;;;;;12.13;10.05;;;;;;;;;;5022509;28;20053;-74
2022/10/26 07:50:55;;;;;;;14.57;11.25;;;;;;;;;;5029783;28;20056;-74
2022/10/26 07:53:21;;;;;;;14.77;10.27;;;;;;;;;;5020779;28;20053;-74
2022/10/26 07:55:57;;;;;;;13.52;10.75;;;;;;;;;;5035115;28;20089;-74
2022/10/26 07:58:25;;;;;;;14.57;9.98;;;;;;;;;;5027913;28;20041;-74
2022/10/26 08:00:51;;;;;;;15.20;10.20;;;;;;;;;;5023926;28;20050;-74
2022/10/26 08:03:17;;;;;;;12.90;10.13;;;;;;;;;;5027484;28;20108;-74
2022/10/26 08:05:46;;;;;;;12.98;10.15;;;;;;;;;;5022299;28;20041;-74
2022/10/26 08:08:13;;;;;;;13.68;10.18;;;;;;;;;;5025991;28;20487;-74
2022/10/26 08:10:45;;;;;;;15.00;10.07;;;;;;;;;;5024883;28;20048;-74
2022/10/26 08:13:12;;;;;;;11.90;10.17;;;;;;;;;;5023566;28;20051;-74
2022/10/26 08:15:38;;;;;;;12.27;9.88;;;;;;;;;;5026442;28;20041;-74
2022/10/26 08:18:07;;;;;;;15.93;10.27;;;;;;;;;;5018562;28;20049;-74
2022/10/26 08:20:33;;;;;;;15.05;9.77;;;;;;;;;;5031208;28;20045;-74
2022/10/26 08:23:00;;;;;;;14.23;9.50;;;;;;;;;;5024578;28;20112;-74
2022/10/26 08:25:26;;;;;;;12.93;9.65;;;;;;;;;;5027853;28;20053;-74
2022/10/26 08:27:53;;;;;;;13.25;9.27;;;;;;;;;;5021016;28;20396;-74
2022/10/26 08:30:19;;;;;;;11.98;9.05;;;;;;;;;;5027018;28;20049;-75
2022/10/26 08:32:45;;;;;;;14.18;8.93;;;;;;;;;;5030910;28;20117;-75
2022/10/26 08:35:11;;;;;;;11.40;9.35;;;;;;;;;;5027461;28;20054;-75
2022/10/26 08:37:37;;;;;;;11.00;9.02;;;;;;;;;;5031814;28;20110;-75
2022/10/26 08:40:04;;;;;;;12.20;9.02;;;;;;;;;;5031097;28;20041;-75
2022/10/26 08:42:36;;;;;;;9.48;8.18;;;;;;;;;;5029131;28;20124;-75
2022/10/26 08:45:05;;;;;;;10.93;7.88;;;;;;;;;;5027320;28;20558;-74
2022/10/26 08:47:37;;;;;;;11.30;7.93;;;;;;;;;;5029595;28;20049;-74
2022/10/26 08:50:03;;;;;;;16.00;9.00;;;;;;;;;;5031154;28;20054;-74
2022/10/26 08:52:36;;;;;;;11.75;7.95;;;;;;;;;;5017580;28;20072;-74
2022/10/26 08:55:03;;;;;;;11.07;8.43;;;;;;;;;;5031183;28;20050;-74
2022/10/26 08:57:35;;;;;;;13.25;8.77;;;;;;;;;;5025557;28;20521;-74
2022/10/26 09:00:02;;;;;;;12.88;8.93;;;;;;;;;;5031601;28;20054;-74
2022/10/26 09:02:29;;;;;;;10.98;7.63;;;;;;;;;;5029266;28;20054;-74
2022/10/26 09:04:58;;;;;;;12.10;8.00;;;;;;;;;;5031653;28;20049;-73
2022/10/26 09:07:29;;;;;;;13.27;8.05;;;;;;;;;;5015531;28;20061;-73
2022/10/26 09:10:03;;;;;;;10.88;7.82;;;;;;;;;;5032224;28;20461;-73
2022/10/26 09:12:35;;;;;;;10.10;8.00;;;;;;;;;;5028094;28;20140;-73
2022/10/26 09:15:24;;;;;;;10.90;8.13;;;;;;;;;;5027137;28;20069;-73
2022/10/26 09:18:00;;;;;;;12.75;8.65;;;;;;;;;;5031684;28;20042;-74
2022/10/26 09:20:29;;;;;;;13.18;8.23;;;;;;;;;;5029687;28;20058;-73
2022/10/26 09:23:11;;;;;;;10.27;7.05;;;;;;;;;;5032358;28;20052;-74
2022/10/26 09:25:38;;;;;;;9.37;7.13;;;;;;;;;;5025487;28;20061;-73
2022/10/26 09:28:07;;;;;;;9.80;6.85;;;;;;;;;;5022942;28;21376;-74
2022/10/26 09:30:34;;;;;;;8.55;6.32;;;;;;;;;;5025670;28;20038;-73
2022/10/26 09:33:03;;;;;;;7.75;6.32;;;;;;;;;;5027841;28;20057;-73
2022/10/26 09:35:33;;;;;;;8.52;5.20;;;;;;;;;;5024095;28;20103;-74
2022/10/26 09:38:02;;;;;;;6.22;4.97;;;;;;;;;;5029813;28;20053;-74
2022/10/26 09:40:51;;;;;;;6.95;4.75;;;;;;;;;;5029449;28;20038;-76
2022/10/26 09:43:26;;;;;;;6.13;4.60;;;;;;;;;;5016878;28;20045;-76
2022/10/26 09:45:52;;;;;;;6.60;4.47;;;;;;;;;;5020333;28;20064;-75
2022/10/26 09:48:40;;;;;;;7.93;4.40;;;;;;;;;;5028760;28;20050;-75
2022/10/26 09:51:06;;;;;;;6.35;4.60;;;;;;;;;;5018301;28;20053;-75
2022/10/26 09:53:32;;;;;;;7.40;4.72;;;;;;;;;;5024382;28;20515;-75
2022/10/26 09:56:11;;;;;;;7.13;4.22;;;;;;;;;;5030162;28;20118;-74
2022/10/26 09:58:42;;;;;;;5.30;4.25;;;;;;;;;;5030341;28;20045;-75
2022/10/26 10:01:20;;;;;;;6.28;4.30;;;;;;;;;;5013580;28;20514;-75
2022/10/26 10:03:46;;;;;;;5.88;4.35;;;;;;;;;;5016511;28;20054;-75
2022/10/26 10:06:19;;;;;;;8.43;4.78;;;;;;;;;;5015702;28;20080;-75
2022/10/26 10:09:05;;;;;;;5.88;4.45;;;;;;;;;;5023520;28;20179;-75
2022/10/26 10:11:39;;;;;;;8.98;4.55;;;;;;;;;;5028982;28;20069;-75
2022/10/26 10:14:09;;;;;;;9.15;4.65;;;;;;;;;;5030558;28;20046;-74
2022/10/26 10:16:35;;;;;;;7.93;4.90;;;;;;;;;;5029761;28;20046;-74
2022/10/26 10:19:01;;;;;;;6.18;4.53;;;;;;;;;;5023830;28;20076;-75
2022/10/26 10:21:34;;;;;;;7.80;4.63;;;;;;;;;;5024334;28;20080;-75
2022/10/26 10:24:00;;;;;;;8.07;4.95;;;;;;;;;;5029326;28;20179;-72
2022/10/26 10:26:26;;;;;;;8.88;5.25;;;;;;;;;;5025250;28;20045;-72
2022/10/26 10:28:57;;;;;;;7.53;4.95;;;;;;;;;;5021151;28;20060;-71
2022/10/26 10:31:27;;;;;;;8.32;5.13;;;;;;;;;;5010534;28;20099;-73
2022/10/26 10:33:53;;;;;;;6.68;5.15;;;;;;;;;;5017545;28;20054;-71
2022/10/26 10:36:23;;;;;;;8.35;5.20;;;;;;;;;;5022802;28;20053;-71
2022/10/26 10:38:51;;;;;;;8.00;5.25;;;;;;;;;;5027619;28;20045;-72
2022/10/26 10:41:37;;;;;;;6.50;5.13;;;;;;;;;;5025373;28;20080;-73
2022/10/26 10:44:08;;;;;;;10.15;5.35;;;;;;;;;;5030898;28;20053;-72
2022/10/26 10:46:36;;;;;;;6.72;4.60;;;;;;;;;;5027194;28;20500;-72
2022/10/26 10:49:06;;;;;;;7.40;4.70;;;;;;;;;;5027428;28;20433;-72
2022/10/26 10:51:38;;;;;;;8.30;5.18;;;;;;;;;;5021805;28;20068;-72
2022/10/26 10:54:05;;;;;;;6.32;4.70;;;;;;;;;;5021577;28;20049;-72
2022/10/26 10:56:34;;;;;;;8.85;5.53;;;;;;;;;;5015364;28;20542;-72
2022/10/26 10:59:12;;;;;;;8.48;5.05;;;;;;;;;;5017389;28;20055;-72
2022/10/26 11:01:39;;;;;;;10.18;5.47;;;;;;;;;;5025593;28;20065;-72
2022/10/26 11:04:17;;;;;;;7.47;5.13;;;;;;;;;;5026937;28;20497;-72
2022/10/26 11:06:44;;;;;;;7.32;6.00;;;;;;;;;;5024606;28;20045;-72
2022/10/26 11:09:12;;;;;;;7.45;5.10;;;;;;;;;;5028107;28;20052;-73
2022/10/26 11:11:54;;;;;;;8.50;5.03;;;;;;;;;;5024923;28;20060;-73
2022/10/26 11:14:33;;;;;;;7.75;5.63;;;;;;;;;;5019752;28;20409;-72
2022/10/26 11:17:18;;;;;;;8.65;5.03;;;;;;;;;;5027992;28;20049;-72
2022/10/26 11:19:47;;;;;;;8.68;5.35;;;;;;;;;;5027128;28;20064;-73
2022/10/26 11:22:16;;;;;;;10.20;5.38;;;;;;;;;;5022452;28;20030;-73
2022/10/26 11:24:54;;;;;;;8.25;5.60;;;;;;;;;;5023134;28;20042;-73
2022/10/26 11:27:27;;;;;;;6.40;4.90;;;;;;;;;;5023646;28;20049;-74
2022/10/26 11:30:05;;;;;;;11.30;5.60;;;;;;;;;;5026008;28;20107;-72
2022/10/26 11:32:34;;;;;;;8.40;5.20;;;;;;;;;;5019642;28;20041;-72
2022/10/26 11:35:04;;;;;;;7.93;4.97;;;;;;;;;;5026056;28;20076;-72
2022/10/26 11:37:36;;;;;;;6.97;5.20;;;;;;;;;;5027831;28;20053;-72
2022/10/26 11:40:16;;;;;;;8.70;5.55;;;;;;;;;;5018718;28;20119;-72
2022/10/26 11:42:47;;;;;;;9.38;5.50;;;;;;;;;;5022035;28;20045;-72
2022/10/26 11:45:16;;;;;;;8.18;5.28;;;;;;;;;;5024964;28;20045;-72
2022/10/26 11:48:03;;;;;;;10.50;5.30;;;;;;;;;;5026743;28;20045;-72
2022/10/26 11:50:39;;;;;;;9.98;5.80;;;;;;;;;;5027908;28;20057;-72
2022/10/26 11:53:14;;;;;;;5.50;4.85;;;;;;;;;;5023164;28;20096;-72
2022/10/26 11:55:41;;;;;;;9.98;5.60;;;;;;;;;;5012311;28;20724;-72
2022/10/26 11:58:09;;;;;;;8.63;5.03;;;;;;;;;;5028704;28;20370;-72
2022/10/26 12:00:40;;;;;;;7.45;4.97;;;;;;;;;;5015097;28;20081;-73
2022/10/26 12:03:08;;;;;;;7.95;5.43;;;;;;;;;;5026528;28;20104;-73
2022/10/26 12:05:42;;;;;;;8.73;5.13;;;;;;;;;;5026792;28;20077;-73
2022/10/26 12:08:15;;;;;;;7.47;5.35;;;;;;;;;;5022284;28;20046;-73
2022/10/26 12:10:42;;;;;;;7.22;5.25;;;;;;;;;;5028211;28;20120;-72
2022/10/26 12:13:28;;;;;;;5.65;4.60;;;;;;;;;;5026516;28;20468;-73
2022/10/26 12:16:00;;;;;;;10.73;5.30;;;;;;;;;;5028213;28;20139;-73
2022/10/26 12:18:26;;;;;;;9.75;4.90;;;;;;;;;;5021874;28;20038;-72
2022/10/26 12:20:52;;;;;;;8.30;5.30;;;;;;;;;;5022964;28;20069;-72
2022/10/26 12:23:18;;;;;;;9.73;5.32;;;;;;;;;;5030590;28;20127;-72
2022/10/26 12:25:44;;;;;;;8.38;5.10;;;;;;;;;;5020787;28;20061;-72
2022/10/26 12:28:34;;;;;;;6.68;5.05;;;;;;;;;;5029609;28;20052;-72
2022/10/26 12:31:18;;;;;;;9.45;5.47;;;;;;;;;;5014615;28;20110;-73
2022/10/26 12:33:51;;;;;;;8.50;5.28;;;;;;;;;;5018590;28;20060;-72
2022/10/26 12:36:36;;;;;;;8.07;5.20;;;;;;;;;;5028497;28;20049;-73
2022/10/26 12:39:02;;;;;;;8.65;5.20;;;;;;;;;;5023112;28;20053;-72
2022/10/26 12:41:28;;;;;;;11.18;4.93;;;;;;;;;;5029565;28;20410;-72
2022/10/26 12:43:55;;;;;;;6.13;4.45;;;;;;;;;;5023794;28;20482;-73
2022/10/26 12:46:21;;;;;;;9.10;5.18;;;;;;;;;;5031094;28;20041;-74
2022/10/26 12:48:52;;;;;;;7.47;4.80;;;;;;;;;;5030426;28;20052;-73
2022/10/26 12:51:21;;;;;;;7.05;4.45;;;;;;;;;;5023753;28;20052;-73
2022/10/26 12:54:06;;;;;;;10.38;5.20;;;;;;;;;;5027269;28;20056;-74
2022/10/26 12:56:41;;;;;;;9.18;4.70;;;;;;;;;;5031382;28;20084;-73
2022/10/26 12:59:13;;;;;;;9.80;5.13;;;;;;;;;;5031412;28;20061;-74
2022/10/26 13:01:58;;;;;;;7.15;4.15;;;;;;;;;;5030363;28;20059;-74
2022/10/26 13:04:39;;;;;;;9.02;4.97;;;;;;;;;;5014861;28;20522;-74
2022/10/26 13:07:08;;;;;;;6.07;4.47;;;;;;;;;;5029503;28;20099;-73
2022/10/26 13:09:34;;;;;;;9.38;4.30;;;;;;;;;;5020865;28;20087;-73
2022/10/26 13:12:01;;;;;;;7.30;4.25;;;;;;;;;;5025798;28;20045;-74
2022/10/26 13:14:31;;;;;;;10.60;4.07;;;;;;;;;;5031773;28;20048;-73
2022/10/26 13:16:57;;;;;;;7.53;4.10;;;;;;;;;;5028828;28;20046;-73
2022/10/26 13:19:30;;;;;;;5.57;3.50;;;;;;;;;;5029373;28;20060;-74
2022/10/26 13:21:56;;;;;;;;;;;;;;;;;;5025065;28;20042;-76
2022/10/26 13:24:24;;;;;;;7.63;3.42;;;;;;;;;;5025358;28;19944;-76
2022/10/26 13:27:06;;;;;;;5.60;3.35;;;;;;;;;;5031829;28;20049;-76
2022/10/26 13:29:32;;;;;;;10.05;3.75;;;;;;;;;;5030007;28;20124;-76
2022/10/26 13:31:59;;;;;;;6.45;3.60;;;;;;;;;;5012585;28;20133;-76
2022/10/26 13:34:30;;;;;;;7.47;3.40;;;;;;;;;;5011978;28;20046;-76
2022/10/26 13:37:03;;;;;;;6.65;3.35;;;;;;;;;;5013663;28;20062;-76
2022/10/26 13:39:31;;;;;;;5.03;2.97;;;;;;;;;;5018313;28;20073;-76
2022/10/26 13:41:59;;;;;;;4.55;3.00;;;;;;;;;;5012719;28;20042;-76
2022/10/26 13:44:25;;;;;;;7.97;3.33;;;;;;;;;;5018280;28;20128;-76
2022/10/26 13:47:11;;;;;;;7.40;2.92;;;;;;;;;;5012674;28;20116;-77
2022/10/26 13:49:41;;;;;;;7.22;3.03;;;;;;;;;;5012490;28;20137;-76
2022/10/26 13:52:16;;;;;;;6.43;3.00;;;;;;;;;;5014132;28;20053;-77
2022/10/26 13:54:45;;;;;;;5.47;3.00;;;;;;;;;;5024425;28;20045;-77
2022/10/26 13:57:30;;;;;;;7.50;2.90;;;;;;;;;;5028469;28;20041;-77
2022/10/26 13:59:57;;;;;;;5.88;2.78;;;;;;;;;;5026925;28;20405;-77
2022/10/26 14:02:23;;;;;;;5.13;2.63;;;;;;;;;;5018010;28;20129;-76
2022/10/26 14:04:54;;;;;;;6.78;2.75;;;;;;;;;;5012506;28;20066;-76
2022/10/26 14:07:23;;;;;;;5.43;2.70;;;;;;;;;;5029431;28;20046;-76
2022/10/26 14:09:50;;;;;;;6.32;2.45;;;;;;;;;;5031256;28;20042;-76
2022/10/26 14:12:16;;;;;;;5.28;2.72;;;;;;;;;;5014748;28;20060;-77
2022/10/26 14:14:42;;;;;;;8.15;3.03;;;;;;;;;;5012017;28;20085;-76
2022/10/26 14:17:17;;;;;;;5.40;3.00;;;;;;;;;;5010983;28;20088;-76
2022/10/26 14:19:43;;;;;;;6.90;2.95;;;;;;;;;;5021393;28;20048;-76
2022/10/26 14:22:18;;;;;;;6.38;3.15;;;;;;;;;;5029857;28;20045;-76
2022/10/26 14:24:49;;;;;;;5.93;2.58;;;;;;;;;;5018921;28;20049;-76
2022/10/26 14:27:16;;;;;;;6.30;2.55;;;;;;;;;;5031265;28;20049;-76
2022/10/26 14:29:45;;;;;;;6.25;2.60;;;;;;;;;;5032279;28;20489;-76
2022/10/26 14:32:21;;;;;;;6.72;2.67;;;;;;;;;;5011921;28;20050;-76
2022/10/26 14:34:47;;;;;;;7.50;3.05;;;;;;;;;;5010425;28;20054;-76
2022/10/26 14:37:20;;;;;;;7.05;2.95;;;;;;;;;;5023797;28;20050;-76
2022/10/26 14:39:46;;;;;;;;;;;;;;;;;;5026536;28;20045;-76
2022/10/26 14:42:21;;;;;;;6.43;3.03;;;;;;;;;;5031095;28;19924;-76
2022/10/26 14:44:47;;;;;;;5.22;2.90;;;;;;;;;;5024873;28;20107;-76